createdAt,value
2018-09-20T00:00:38.812Z,18.32
2018-09-20T00:01:39.034Z,18.30
2018-09-20T00:02:39.888Z,18.28
2018-09-20T00:03:40.037Z,18.27
2018-09-20T00:04:40.807Z,18.26
2018-09-20T00:05:41.281Z,18.25
2018-09-20T00:06:42.235Z,18.24
2018-09-20T00:07:43.094Z,18.23
2018-09-20T00:08:43.508Z,18.22
2018-09-20T00:09:43.752Z,18.21
2018-09-20T00:10:44.149Z,18.20
2018-09-20T00:11:44.164Z,18.18
2018-09-20T00:12:44.476Z,18.17
2018-09-20T00:13:44.674Z,18.16
2018-09-20T00:14:44.891Z,18.15
2018-09-20T00:15:45.812Z,18.14
2018-09-20T00:16:46.569Z,18.14
2018-09-20T00:17:46.759Z,18.13
2018-09-20T00:18:47.306Z,18.13
2018-09-20T00:19:47.531Z,18.13
2018-09-20T00:20:47.761Z,18.12
2018-09-20T00:21:48.267Z,18.12
2018-09-20T00:22:49.196Z,18.11
2018-09-20T00:23:49.708Z,18.10
2018-09-20T00:24:50.574Z,18.08
2018-09-20T00:25:50.899Z,18.07
2018-09-20T00:26:51.148Z,18.05
2018-09-20T00:27:51.315Z,18.03
2018-09-20T00:28:51.770Z,18.01
2018-09-20T00:28:59.828Z,17.67
2018-09-20T00:30:01.140Z,17.67
2018-09-20T00:31:01.382Z,17.66
2018-09-20T00:32:01.657Z,17.66
2018-09-20T00:33:01.959Z,17.65
2018-09-20T00:34:02.938Z,17.64
2018-09-20T00:35:03.930Z,17.63
2018-09-20T00:36:04.786Z,17.62
2018-09-20T00:37:05.106Z,17.62
2018-09-20T00:38:05.352Z,17.60
2018-09-20T00:39:05.582Z,17.59
2018-09-20T00:40:06.015Z,17.58
2018-09-20T00:41:06.823Z,17.57
2018-09-20T00:42:07.592Z,17.56
2018-09-20T00:43:07.869Z,17.54
2018-09-20T00:44:08.841Z,17.53
2018-09-20T00:45:09.369Z,17.52
2018-09-20T00:46:10.098Z,17.51
2018-09-20T00:47:10.973Z,17.50
2018-09-20T00:48:11.717Z,17.49
2018-09-20T00:49:11.989Z,17.48
2018-09-20T00:50:12.872Z,17.47
2018-09-20T00:51:13.233Z,17.47
2018-09-20T00:52:13.419Z,17.46
2018-09-20T00:53:13.428Z,17.46
2018-09-20T00:54:13.698Z,17.45
2018-09-20T00:55:14.028Z,17.45
2018-09-20T00:56:14.366Z,17.45
2018-09-20T00:57:14.928Z,17.45
2018-09-20T00:58:15.642Z,17.44
2018-09-20T00:59:15.960Z,17.44
2018-09-20T01:00:16.157Z,17.44
2018-09-20T01:01:16.926Z,17.43
2018-09-20T01:02:17.840Z,17.43
2018-09-20T01:03:18.143Z,17.42
2018-09-20T01:04:18.379Z,17.41
2018-09-20T01:05:19.182Z,17.40
2018-09-20T01:06:19.930Z,17.39
2018-09-20T01:07:20.135Z,17.39
2018-09-20T01:08:20.355Z,17.38
2018-09-20T01:09:20.549Z,17.37
2018-09-20T01:10:20.921Z,17.36
2018-09-20T01:11:21.341Z,17.36
2018-09-20T01:12:22.257Z,17.35
2018-09-20T01:13:22.511Z,17.34
2018-09-20T01:14:22.773Z,17.34
2018-09-20T01:14:32.091Z,17.25
2018-09-20T01:15:31.864Z,17.25
2018-09-20T01:16:32.118Z,17.25
2018-09-20T01:17:32.486Z,17.24
2018-09-20T01:18:32.750Z,17.24
2018-09-20T01:19:33.020Z,17.24
2018-09-20T01:20:33.208Z,17.24
2018-09-20T01:21:33.424Z,17.24
2018-09-20T01:22:33.646Z,17.24
2018-09-20T01:23:33.889Z,17.24
2018-09-20T01:24:34.129Z,17.24
2018-09-20T01:25:35.037Z,17.23
2018-09-20T01:26:35.283Z,17.23
2018-09-20T01:27:36.145Z,17.23
2018-09-20T01:28:36.560Z,17.22
2018-09-20T01:29:36.571Z,17.21
2018-09-20T01:30:37.021Z,17.20
2018-09-20T01:31:37.323Z,17.19
2018-09-20T01:32:37.858Z,17.18
2018-09-20T01:33:38.614Z,17.17
2018-09-20T01:34:38.891Z,17.16
2018-09-20T01:35:39.555Z,17.14
2018-09-20T01:36:40.319Z,17.13
2018-09-20T01:37:41.110Z,17.12
2018-09-20T01:38:41.740Z,17.11
2018-09-20T01:39:42.546Z,17.10
2018-09-20T01:40:43.518Z,17.09
2018-09-20T01:41:44.422Z,17.07
2018-09-20T01:42:44.531Z,17.06
2018-09-20T01:43:44.940Z,17.05
2018-09-20T01:44:45.650Z,17.03
2018-09-20T01:45:45.934Z,17.01
2018-09-20T01:46:46.688Z,17.00
2018-09-20T01:47:47.677Z,16.98
2018-09-20T01:48:48.640Z,16.96
2018-09-20T01:49:49.498Z,16.94
2018-09-20T01:50:49.700Z,16.92
2018-09-20T01:51:50.142Z,16.90
2018-09-20T01:52:50.472Z,16.88
2018-09-20T01:53:50.624Z,16.86
2018-09-20T01:54:51.033Z,16.84
2018-09-20T01:55:51.344Z,16.83
2018-09-20T01:56:52.141Z,16.81
2018-09-20T01:57:53.111Z,16.80
2018-09-20T01:58:02.076Z,16.55
2018-09-20T01:59:02.284Z,16.55
2018-09-20T02:00:02.682Z,16.55
2018-09-20T02:01:03.059Z,16.55
2018-09-20T02:02:03.777Z,16.55
2018-09-20T02:03:04.207Z,16.55
2018-09-20T02:04:04.483Z,16.54
2018-09-20T02:05:04.962Z,16.54
2018-09-20T02:06:05.242Z,16.53
2018-09-20T02:07:06.001Z,16.51
2018-09-20T02:08:06.735Z,16.51
2018-09-20T02:09:07.005Z,16.50
2018-09-20T02:10:07.544Z,16.49
2018-09-20T02:11:07.729Z,16.48
2018-09-20T02:12:08.012Z,16.47
2018-09-20T02:13:08.353Z,16.46
2018-09-20T02:14:08.670Z,16.46
2018-09-20T02:15:08.873Z,16.45
2018-09-20T02:16:09.837Z,16.44
2018-09-20T02:17:10.122Z,16.43
2018-09-20T02:18:10.321Z,16.43
2018-09-20T02:19:09.805Z,16.42
2018-09-20T02:20:11.638Z,16.42
2018-09-20T02:21:12.058Z,16.41
2018-09-20T02:22:12.832Z,16.40
2018-09-20T02:23:13.786Z,16.39
2018-09-20T02:24:14.168Z,16.38
2018-09-20T02:25:14.411Z,16.38
2018-09-20T02:26:14.801Z,16.37
2018-09-20T02:27:15.111Z,16.37
2018-09-20T02:28:16.041Z,16.36
2018-09-20T02:29:16.304Z,16.35
2018-09-20T02:30:16.552Z,16.34
2018-09-20T02:31:17.081Z,16.33
2018-09-20T02:32:17.285Z,16.32
2018-09-20T02:33:17.497Z,16.31
2018-09-20T02:34:18.249Z,16.30
2018-09-20T02:35:18.773Z,16.30
2018-09-20T02:36:19.581Z,16.29
2018-09-20T02:37:20.444Z,16.29
2018-09-20T02:38:20.778Z,16.29
2018-09-20T02:39:21.212Z,16.28
2018-09-20T02:40:21.575Z,16.28
2018-09-20T02:41:21.581Z,16.28
2018-09-20T02:42:21.885Z,16.28
2018-09-20T02:43:22.125Z,16.27
2018-09-20T02:43:30.519Z,16.17
2018-09-20T02:44:31.725Z,16.16
2018-09-20T02:45:30.701Z,16.16
2018-09-20T02:46:31.974Z,16.16
2018-09-20T02:47:32.743Z,16.15
2018-09-20T02:48:33.100Z,16.15
2018-09-20T02:49:33.888Z,16.15
2018-09-20T02:50:34.101Z,16.15
2018-09-20T02:51:34.388Z,16.15
2018-09-20T02:52:34.555Z,16.15
2018-09-20T02:53:35.019Z,16.14
2018-09-20T02:54:35.695Z,16.14
2018-09-20T02:55:35.914Z,16.13
2018-09-20T02:56:36.105Z,16.13
2018-09-20T02:57:36.329Z,16.12
2018-09-20T02:58:36.543Z,16.11
2018-09-20T02:59:36.700Z,16.10
2018-09-20T03:00:36.971Z,16.09
2018-09-20T03:01:37.234Z,16.08
2018-09-20T03:02:37.423Z,16.07
2018-09-20T03:03:37.629Z,16.06
2018-09-20T03:04:37.895Z,16.05
2018-09-20T03:05:38.285Z,16.04
2018-09-20T03:06:38.475Z,16.03
2018-09-20T03:07:38.969Z,16.02
2018-09-20T03:08:38.359Z,16.01
2018-09-20T03:09:39.684Z,16.00
2018-09-20T03:10:39.933Z,16.00
2018-09-20T03:11:40.238Z,15.99
2018-09-20T03:12:40.367Z,15.97
2018-09-20T03:13:41.125Z,15.96
2018-09-20T03:14:41.459Z,15.95
2018-09-20T03:15:41.625Z,15.94
2018-09-20T03:16:41.846Z,15.93
2018-09-20T03:17:42.050Z,15.92
2018-09-20T03:18:41.784Z,15.91
2018-09-20T03:19:43.183Z,15.90
2018-09-20T03:20:43.478Z,15.90
2018-09-20T03:21:43.765Z,15.90
2018-09-20T03:22:43.960Z,15.90
2018-09-20T03:23:44.216Z,15.90
2018-09-20T03:24:44.378Z,15.90
2018-09-20T03:25:44.601Z,15.90
2018-09-20T03:26:45.124Z,15.90
2018-09-20T03:27:45.304Z,15.90
2018-09-20T03:27:53.668Z,15.78
2018-09-20T03:28:55.154Z,15.78
2018-09-20T03:29:55.331Z,15.78
2018-09-20T03:30:55.608Z,15.78
2018-09-20T03:31:54.682Z,15.78
2018-09-20T03:32:56.059Z,15.78
2018-09-20T03:33:56.438Z,15.77
2018-09-20T03:34:56.652Z,15.77
2018-09-20T03:35:56.871Z,15.76
2018-09-20T03:36:57.084Z,15.76
2018-09-20T03:37:57.326Z,15.75
2018-09-20T03:38:57.786Z,15.74
2018-09-20T03:39:57.952Z,15.73
2018-09-20T03:40:58.123Z,15.72
2018-09-20T03:41:58.559Z,15.71
2018-09-20T03:42:58.690Z,15.70
2018-09-20T03:43:58.923Z,15.69
2018-09-20T03:44:59.178Z,15.68
2018-09-20T03:45:59.385Z,15.67
2018-09-20T03:47:00.026Z,15.66
2018-09-20T03:48:00.273Z,15.66
2018-09-20T03:49:00.504Z,15.65
2018-09-20T03:50:00.738Z,15.64
2018-09-20T03:51:01.122Z,15.63
2018-09-20T03:52:00.336Z,15.62
2018-09-20T03:53:01.646Z,15.61
2018-09-20T03:54:01.849Z,15.60
2018-09-20T03:55:02.107Z,15.60
2018-09-20T03:56:02.899Z,15.59
2018-09-20T03:57:03.111Z,15.58
2018-09-20T03:58:03.329Z,15.57
2018-09-20T03:59:03.591Z,15.57
2018-09-20T04:00:04.116Z,15.56
2018-09-20T04:01:04.316Z,15.56
2018-09-20T04:02:04.854Z,15.56
2018-09-20T04:03:05.192Z,15.55
2018-09-20T04:04:05.338Z,15.54
2018-09-20T04:05:05.563Z,15.54
2018-09-20T04:06:06.009Z,15.53
2018-09-20T04:07:06.460Z,15.52
2018-09-20T04:08:06.669Z,15.52
2018-09-20T04:09:06.972Z,15.51
2018-09-20T04:10:07.602Z,15.51
2018-09-20T04:11:07.783Z,15.50
2018-09-20T04:12:07.932Z,15.49
2018-09-20T04:12:15.992Z,15.39
2018-09-20T04:13:16.540Z,15.39
2018-09-20T04:14:17.886Z,15.39
2018-09-20T04:15:18.079Z,15.39
2018-09-20T04:16:18.328Z,15.39
2018-09-20T04:17:18.526Z,15.39
2018-09-20T04:18:18.796Z,15.40
2018-09-20T04:19:17.963Z,15.40
2018-09-20T04:20:19.231Z,15.40
2018-09-20T04:21:19.504Z,15.39
2018-09-20T04:22:19.731Z,15.39
2018-09-20T04:23:19.979Z,15.38
2018-09-20T04:24:20.212Z,15.38
2018-09-20T04:25:20.456Z,15.37
2018-09-20T04:26:20.728Z,15.36
2018-09-20T04:27:20.901Z,15.35
2018-09-20T04:28:21.252Z,15.35
2018-09-20T04:29:21.539Z,15.34
2018-09-20T04:30:21.746Z,15.33
2018-09-20T04:31:21.967Z,15.33
2018-09-20T04:32:22.175Z,15.32
2018-09-20T04:33:22.305Z,15.31
2018-09-20T04:34:22.500Z,15.30
2018-09-20T04:35:22.684Z,15.30
2018-09-20T04:36:23.205Z,15.29
2018-09-20T04:37:23.466Z,15.28
2018-09-20T04:38:23.692Z,15.28
2018-09-20T04:39:23.017Z,15.27
2018-09-20T04:40:24.162Z,15.27
2018-09-20T04:41:24.462Z,15.27
2018-09-20T04:42:23.963Z,15.27
2018-09-20T04:43:25.280Z,15.26
2018-09-20T04:44:25.534Z,15.26
2018-09-20T04:45:25.768Z,15.26
2018-09-20T04:46:25.961Z,15.26
2018-09-20T04:47:26.176Z,15.27
2018-09-20T04:48:26.602Z,15.27
2018-09-20T04:49:26.842Z,15.28
2018-09-20T04:50:26.970Z,15.29
2018-09-20T04:51:27.120Z,15.29
2018-09-20T04:52:27.281Z,15.30
2018-09-20T04:53:27.708Z,15.30
2018-09-20T04:54:26.815Z,15.31
2018-09-20T04:55:28.026Z,15.31
2018-09-20T04:56:28.288Z,15.31
2018-09-20T04:57:28.633Z,15.31
2018-09-20T04:58:28.907Z,15.31
2018-09-20T04:58:37.340Z,15.30
2018-09-20T04:59:38.906Z,15.30
2018-09-20T05:00:39.481Z,15.30
2018-09-20T05:01:39.697Z,15.30
2018-09-20T05:02:39.867Z,15.30
2018-09-20T05:03:40.319Z,15.29
2018-09-20T05:04:40.717Z,15.29
2018-09-20T05:05:40.906Z,15.29
2018-09-20T05:06:41.515Z,15.30
2018-09-20T05:07:41.672Z,15.30
2018-09-20T05:08:41.850Z,15.30
2018-09-20T05:09:42.133Z,15.31
2018-09-20T05:10:42.403Z,15.31
2018-09-20T05:11:42.625Z,15.32
2018-09-20T05:12:42.794Z,15.33
2018-09-20T05:13:42.945Z,15.33
2018-09-20T05:14:43.180Z,15.34
2018-09-20T05:15:43.376Z,15.34
2018-09-20T05:16:43.655Z,15.34
2018-09-20T05:17:44.101Z,15.34
2018-09-20T05:18:44.272Z,15.34
2018-09-20T05:19:44.286Z,15.34
2018-09-20T05:20:44.654Z,15.33
2018-09-20T05:21:44.874Z,15.33
2018-09-20T05:22:45.140Z,15.33
2018-09-20T05:23:45.454Z,15.33
2018-09-20T05:24:45.611Z,15.33
2018-09-20T05:25:45.861Z,15.33
2018-09-20T05:26:46.122Z,15.33
2018-09-20T05:27:46.385Z,15.33
2018-09-20T05:28:46.587Z,15.33
2018-09-20T05:29:46.742Z,15.32
2018-09-20T05:30:46.933Z,15.32
2018-09-20T05:31:46.142Z,15.31
2018-09-20T05:32:47.311Z,15.31
2018-09-20T05:33:47.542Z,15.31
2018-09-20T05:34:47.787Z,15.30
2018-09-20T05:35:48.007Z,15.30
2018-09-20T05:36:48.730Z,15.30
2018-09-20T05:37:48.928Z,15.30
2018-09-20T05:38:49.152Z,15.30
2018-09-20T05:39:49.325Z,15.30
2018-09-20T05:40:49.507Z,15.30
2018-09-20T05:41:50.026Z,15.30
2018-09-20T05:41:58.099Z,15.30
2018-09-20T05:42:59.257Z,15.30
2018-09-20T05:43:59.471Z,15.30
2018-09-20T05:44:59.662Z,15.30
2018-09-20T05:45:59.875Z,15.30
2018-09-20T05:47:00.263Z,15.31
2018-09-20T05:48:00.742Z,15.32
2018-09-20T05:49:00.977Z,15.32
2018-09-20T05:50:01.156Z,15.32
2018-09-20T05:51:01.383Z,15.32
2018-09-20T05:52:01.662Z,15.32
2018-09-20T05:53:02.102Z,15.32
2018-09-20T05:54:02.729Z,15.32
2018-09-20T05:55:03.024Z,15.32
2018-09-20T05:56:03.321Z,15.32
2018-09-20T05:57:03.528Z,15.31
2018-09-20T05:58:03.749Z,15.30
2018-09-20T05:59:03.953Z,15.30
2018-09-20T06:00:04.143Z,15.30
2018-09-20T06:01:04.431Z,15.29
2018-09-20T06:02:04.787Z,15.29
2018-09-20T06:03:04.959Z,15.29
2018-09-20T06:04:05.256Z,15.29
2018-09-20T06:05:05.595Z,15.30
2018-09-20T06:06:06.279Z,15.30
2018-09-20T06:07:06.628Z,15.30
2018-09-20T06:08:06.810Z,15.31
2018-09-20T06:09:07.763Z,15.31
2018-09-20T06:10:07.951Z,15.31
2018-09-20T06:11:08.196Z,15.31
2018-09-20T06:12:08.459Z,15.31
2018-09-20T06:13:08.721Z,15.31
2018-09-20T06:14:08.154Z,15.32
2018-09-20T06:15:10.042Z,15.32
2018-09-20T06:16:10.324Z,15.33
2018-09-20T06:17:10.684Z,15.34
2018-09-20T06:18:10.889Z,15.34
2018-09-20T06:19:11.128Z,15.34
2018-09-20T06:20:11.283Z,15.34
2018-09-20T06:21:11.500Z,15.35
2018-09-20T06:22:11.678Z,15.35
2018-09-20T06:23:12.165Z,15.36
2018-09-20T06:24:12.659Z,15.36
2018-09-20T06:25:12.871Z,15.37
2018-09-20T06:26:13.111Z,15.38
2018-09-20T06:26:21.803Z,15.54
2018-09-20T06:27:23.348Z,15.54
2018-09-20T06:28:23.544Z,15.54
2018-09-20T06:29:24.332Z,15.54
2018-09-20T06:30:24.495Z,15.54
2018-09-20T06:31:24.891Z,15.54
2018-09-20T06:32:25.328Z,15.54
2018-09-20T06:33:25.720Z,15.54
2018-09-20T06:34:26.176Z,15.54
2018-09-20T06:35:26.560Z,15.55
2018-09-20T06:36:27.239Z,15.55
2018-09-20T06:37:27.515Z,15.56
2018-09-20T06:38:27.584Z,15.57
2018-09-20T06:39:28.155Z,15.58
2018-09-20T06:40:29.387Z,15.59
2018-09-20T06:41:27.770Z,15.59
2018-09-20T06:42:29.338Z,15.60
2018-09-20T06:43:29.974Z,15.60
2018-09-20T06:44:30.267Z,15.61
2018-09-20T06:45:30.453Z,15.62
2018-09-20T06:46:30.636Z,15.63
2018-09-20T06:47:31.056Z,15.64
2018-09-20T06:48:31.454Z,15.66
2018-09-20T06:49:30.728Z,15.67
2018-09-20T06:50:32.076Z,15.69
2018-09-20T06:51:31.328Z,15.70
2018-09-20T06:52:32.962Z,15.71
2018-09-20T06:53:33.345Z,15.72
2018-09-20T06:54:33.755Z,15.73
2018-09-20T06:55:34.268Z,15.74
2018-09-20T06:56:34.572Z,15.76
2018-09-20T06:57:34.217Z,15.77
2018-09-20T06:58:35.397Z,15.78
2018-09-20T06:59:35.811Z,15.79
2018-09-20T07:00:35.943Z,15.80
2018-09-20T07:01:36.169Z,15.81
2018-09-20T07:02:36.358Z,15.83
2018-09-20T07:03:36.820Z,15.85
2018-09-20T07:04:37.134Z,15.87
2018-09-20T07:05:37.354Z,15.89
2018-09-20T07:06:37.658Z,15.90
2018-09-20T07:07:37.940Z,15.93
2018-09-20T07:08:38.147Z,15.95
2018-09-20T07:09:38.645Z,15.97
2018-09-20T07:10:38.829Z,16.00
2018-09-20T07:11:39.119Z,16.03
2018-09-20T07:12:39.449Z,16.06
2018-09-20T07:13:40.328Z,16.08
2018-09-20T07:13:48.776Z,16.52
2018-09-20T07:14:49.077Z,16.52
2018-09-20T07:15:50.795Z,16.52
2018-09-20T07:16:51.155Z,16.53
2018-09-20T07:17:51.379Z,16.53
2018-09-20T07:18:51.657Z,16.54
2018-09-20T07:19:51.828Z,16.55
2018-09-20T07:20:52.098Z,16.57
2018-09-20T07:21:52.377Z,16.58
2018-09-20T07:22:52.719Z,16.60
2018-09-20T07:23:53.101Z,16.62
2018-09-20T07:24:53.256Z,16.64
2018-09-20T07:25:53.555Z,16.66
2018-09-20T07:26:53.989Z,16.67
2018-09-20T07:27:54.375Z,16.68
2018-09-20T07:28:54.539Z,16.69
2018-09-20T07:29:54.903Z,16.71
2018-09-20T07:30:55.314Z,16.73
2018-09-20T07:31:55.860Z,16.75
2018-09-20T07:32:56.119Z,16.79
2018-09-20T07:33:57.123Z,16.83
2018-09-20T07:34:57.298Z,16.87
2018-09-20T07:35:57.636Z,16.93
2018-09-20T07:36:58.004Z,17.01
2018-09-20T07:37:58.232Z,17.12
2018-09-20T07:38:58.569Z,17.26
2018-09-20T07:39:57.823Z,17.43
2018-09-20T07:40:59.050Z,17.63
2018-09-20T07:41:59.304Z,17.85
2018-09-20T07:42:59.478Z,18.09
2018-09-20T07:43:59.707Z,18.34
2018-09-20T07:44:59.911Z,18.60
2018-09-20T07:46:00.151Z,18.86
2018-09-20T07:47:00.712Z,19.12
2018-09-20T07:48:01.219Z,19.39
2018-09-20T07:49:01.433Z,19.66
2018-09-20T07:50:01.874Z,19.92
2018-09-20T07:51:02.096Z,20.18
2018-09-20T07:52:02.307Z,20.45
2018-09-20T07:53:02.953Z,20.71
2018-09-20T07:54:03.319Z,20.97
2018-09-20T07:55:03.997Z,21.22
2018-09-20T07:56:04.500Z,21.46
2018-09-20T07:57:04.677Z,21.69
2018-09-20T07:58:04.934Z,21.92
2018-09-20T07:59:05.119Z,22.15
2018-09-20T07:59:14.117Z,26.10
2018-09-20T08:00:14.659Z,26.10
2018-09-20T08:01:14.896Z,26.12
2018-09-20T08:02:15.063Z,26.13
2018-09-20T08:03:15.424Z,26.15
2018-09-20T08:04:15.802Z,26.18
2018-09-20T08:05:16.117Z,26.20
2018-09-20T08:06:16.296Z,26.24
2018-09-20T08:07:16.590Z,26.29
2018-09-20T08:08:15.795Z,26.34
2018-09-20T08:09:17.054Z,26.40
2018-09-20T08:10:17.258Z,26.44
2018-09-20T08:11:17.495Z,26.48
2018-09-20T08:12:17.656Z,26.56
2018-09-20T08:13:17.777Z,26.64
2018-09-20T08:14:18.081Z,26.73
2018-09-20T08:15:18.700Z,26.82
2018-09-20T08:16:19.660Z,26.89
2018-09-20T08:17:19.845Z,26.96
2018-09-20T08:18:20.028Z,27.02
2018-09-20T08:19:20.455Z,27.08
2018-09-20T08:20:20.616Z,27.15
2018-09-20T08:21:20.823Z,27.20
2018-09-20T08:22:21.081Z,27.27
2018-09-20T08:23:21.164Z,27.38
2018-09-20T08:24:22.049Z,27.49
2018-09-20T08:25:22.433Z,27.59
2018-09-20T08:26:23.081Z,27.69
2018-09-20T08:27:23.238Z,27.76
2018-09-20T08:28:23.625Z,27.84
2018-09-20T08:29:23.958Z,27.94
2018-09-20T08:30:24.106Z,28.03
2018-09-20T08:31:24.437Z,28.14
2018-09-20T08:32:24.614Z,28.23
2018-09-20T08:33:25.145Z,28.30
2018-09-20T08:34:25.393Z,28.39
2018-09-20T08:35:25.629Z,28.48
2018-09-20T08:36:25.993Z,28.58
2018-09-20T08:37:26.263Z,28.65
2018-09-20T08:38:25.560Z,28.72
2018-09-20T08:39:26.931Z,28.76
2018-09-20T08:40:27.255Z,28.82
2018-09-20T08:41:27.800Z,28.88
2018-09-20T08:42:28.142Z,28.94
2018-09-20T08:43:28.294Z,29.01
2018-09-20T08:44:28.813Z,29.08
2018-09-20T08:44:36.864Z,30.10
2018-09-20T08:45:38.054Z,30.10
2018-09-20T08:46:38.266Z,30.10
2018-09-20T08:47:38.719Z,30.08
2018-09-20T08:48:38.912Z,30.06
2018-09-20T08:49:39.771Z,30.04
2018-09-20T08:50:40.465Z,30.02
2018-09-20T08:51:40.672Z,29.97
2018-09-20T08:52:40.881Z,29.88
2018-09-20T08:53:41.471Z,29.79
2018-09-20T08:54:41.851Z,29.71
2018-09-20T08:55:42.160Z,29.64
2018-09-20T08:56:42.427Z,29.56
2018-09-20T08:57:41.737Z,29.49
2018-09-20T08:58:43.427Z,29.42
2018-09-20T08:59:43.651Z,29.35
2018-09-20T09:00:43.848Z,29.28
2018-09-20T09:01:44.275Z,29.21
2018-09-20T09:02:45.056Z,29.16
2018-09-20T09:03:45.435Z,29.10
2018-09-20T09:04:45.902Z,29.05
2018-09-20T09:05:46.141Z,29.01
2018-09-20T09:06:46.296Z,28.97
2018-09-20T09:07:46.658Z,28.93
2018-09-20T09:08:46.842Z,28.86
2018-09-20T09:09:47.173Z,28.81
2018-09-20T09:10:47.445Z,28.78
2018-09-20T09:11:47.943Z,28.75
2018-09-20T09:12:47.613Z,28.70
2018-09-20T09:13:49.149Z,28.64
2018-09-20T09:14:49.687Z,28.58
2018-09-20T09:15:50.562Z,28.52
2018-09-20T09:16:50.740Z,28.45
2018-09-20T09:17:51.398Z,28.37
2018-09-20T09:18:51.642Z,28.30
2018-09-20T09:19:51.827Z,28.22
2018-09-20T09:20:52.093Z,28.13
2018-09-20T09:21:52.855Z,28.03
2018-09-20T09:22:53.456Z,27.93
2018-09-20T09:23:53.673Z,27.85
2018-09-20T09:24:54.135Z,27.78
2018-09-20T09:25:54.388Z,27.71
2018-09-20T09:26:54.540Z,27.63
2018-09-20T09:27:55.292Z,27.56
2018-09-20T09:28:55.466Z,27.50
2018-09-20T09:29:03.516Z,26.07
2018-09-20T09:30:04.792Z,26.07
2018-09-20T09:31:04.995Z,26.06
2018-09-20T09:32:05.160Z,26.04
2018-09-20T09:33:05.369Z,26.00
2018-09-20T09:34:05.734Z,25.97
2018-09-20T09:35:04.953Z,25.94
2018-09-20T09:36:06.153Z,25.93
2018-09-20T09:37:06.350Z,25.92
2018-09-20T09:38:06.638Z,25.90
2018-09-20T09:39:06.876Z,25.88
2018-09-20T09:40:07.462Z,25.85
2018-09-20T09:41:07.691Z,25.84
2018-09-20T09:42:08.013Z,25.83
2018-09-20T09:43:07.122Z,25.82
2018-09-20T09:44:08.511Z,25.80
2018-09-20T09:45:09.019Z,25.79
2018-09-20T09:46:09.216Z,25.79
2018-09-20T09:47:10.138Z,25.77
2018-09-20T09:48:10.435Z,25.74
2018-09-20T09:49:09.824Z,25.71
2018-09-20T09:50:11.548Z,25.69
2018-09-20T09:51:12.060Z,25.66
2018-09-20T09:52:12.373Z,25.63
2018-09-20T09:53:12.619Z,25.61
2018-09-20T09:54:12.906Z,25.59
2018-09-20T09:55:12.092Z,25.59
2018-09-20T09:56:13.412Z,25.58
2018-09-20T09:57:13.656Z,25.57
2018-09-20T09:58:13.788Z,25.56
2018-09-20T09:59:14.106Z,25.55
2018-09-20T10:00:14.670Z,25.54
2018-09-20T10:01:14.937Z,25.54
2018-09-20T10:02:15.167Z,25.52
2018-09-20T10:03:15.448Z,25.50
2018-09-20T10:04:15.649Z,25.49
2018-09-20T10:05:15.967Z,25.48
2018-09-20T10:06:16.108Z,25.48
2018-09-20T10:07:16.537Z,25.48
2018-09-20T10:08:16.877Z,25.49
2018-09-20T10:09:17.123Z,25.50
2018-09-20T10:10:17.278Z,25.51
2018-09-20T10:11:17.627Z,25.50
2018-09-20T10:12:17.868Z,25.49
2018-09-20T10:13:18.058Z,25.50
2018-09-20T10:14:18.247Z,25.51
2018-09-20T10:15:18.432Z,25.50
2018-09-20T10:15:26.548Z,25.43
2018-09-20T10:16:27.688Z,25.43
2018-09-20T10:17:28.050Z,25.43
2018-09-20T10:18:28.513Z,25.45
2018-09-20T10:19:28.764Z,25.45
2018-09-20T10:20:29.109Z,25.44
2018-09-20T10:21:29.412Z,25.44
2018-09-20T10:22:29.577Z,25.44
2018-09-20T10:23:29.762Z,25.44
2018-09-20T10:24:30.027Z,25.44
2018-09-20T10:25:30.270Z,25.46
2018-09-20T10:26:30.522Z,25.47
2018-09-20T10:27:30.736Z,25.48
2018-09-20T10:28:31.121Z,25.50
2018-09-20T10:29:31.578Z,25.52
2018-09-20T10:30:31.858Z,25.54
2018-09-20T10:31:31.237Z,25.56
2018-09-20T10:32:31.281Z,25.59
2018-09-20T10:33:32.449Z,25.62
2018-09-20T10:34:32.718Z,25.65
2018-09-20T10:35:32.943Z,25.69
2018-09-20T10:36:33.179Z,25.72
2018-09-20T10:37:33.518Z,25.75
2018-09-20T10:38:33.682Z,25.79
2018-09-20T10:39:33.975Z,25.82
2018-09-20T10:40:34.182Z,25.84
2018-09-20T10:41:34.483Z,25.84
2018-09-20T10:42:34.666Z,25.84
2018-09-20T10:43:34.856Z,25.84
2018-09-20T10:44:35.071Z,25.84
2018-09-20T10:45:35.266Z,25.83
2018-09-20T10:46:35.480Z,25.82
2018-09-20T10:47:35.712Z,25.82
2018-09-20T10:48:36.076Z,25.81
2018-09-20T10:49:36.305Z,25.81
2018-09-20T10:50:36.427Z,25.82
2018-09-20T10:51:36.704Z,25.84
2018-09-20T10:52:36.996Z,25.86
2018-09-20T10:53:37.176Z,25.88
2018-09-20T10:54:37.422Z,25.91
2018-09-20T10:55:36.554Z,25.93
2018-09-20T10:56:37.736Z,25.96
2018-09-20T10:57:38.513Z,25.98
2018-09-20T10:58:38.677Z,26.01
2018-09-20T10:59:38.980Z,26.04
2018-09-20T11:00:39.171Z,26.08
2018-09-20T11:01:39.517Z,26.12
2018-09-20T11:01:47.601Z,26.66
2018-09-20T11:02:48.835Z,26.66
2018-09-20T11:03:49.010Z,26.66
2018-09-20T11:04:49.250Z,26.67
2018-09-20T11:05:49.761Z,26.67
2018-09-20T11:06:50.004Z,26.67
2018-09-20T11:07:50.326Z,26.66
2018-09-20T11:08:49.477Z,26.65
2018-09-20T11:09:51.176Z,26.65
2018-09-20T11:10:51.430Z,26.63
2018-09-20T11:11:50.659Z,26.62
2018-09-20T11:12:52.200Z,26.61
2018-09-20T11:13:52.626Z,26.61
2018-09-20T11:14:52.871Z,26.60
2018-09-20T11:15:53.230Z,26.60
2018-09-20T11:16:53.514Z,26.60
2018-09-20T11:17:53.767Z,26.60
2018-09-20T11:18:53.988Z,26.59
2018-09-20T11:19:54.345Z,26.60
2018-09-20T11:20:54.545Z,26.60
2018-09-20T11:21:54.717Z,26.61
2018-09-20T11:22:54.940Z,26.61
2018-09-20T11:23:55.115Z,26.62
2018-09-20T11:24:55.403Z,26.62
2018-09-20T11:25:55.791Z,26.63
2018-09-20T11:26:55.088Z,26.63
2018-09-20T11:27:56.329Z,26.63
2018-09-20T11:28:56.524Z,26.63
2018-09-20T11:29:56.812Z,26.63
2018-09-20T11:30:56.944Z,26.62
2018-09-20T11:31:57.196Z,26.60
2018-09-20T11:32:57.805Z,26.60
2018-09-20T11:33:57.941Z,26.59
2018-09-20T11:34:58.272Z,26.60
2018-09-20T11:35:58.410Z,26.60
2018-09-20T11:36:59.198Z,26.61
2018-09-20T11:37:59.378Z,26.62
2018-09-20T11:38:59.671Z,26.61
2018-09-20T11:39:59.994Z,26.62
2018-09-20T11:41:00.430Z,26.62
2018-09-20T11:42:00.666Z,26.62
2018-09-20T11:43:00.853Z,26.60
2018-09-20T11:44:01.188Z,26.59
2018-09-20T11:45:01.787Z,26.57
2018-09-20T11:46:02.249Z,26.57
2018-09-20T11:47:02.541Z,26.56
2018-09-20T11:47:11.332Z,26.64
2018-09-20T11:48:12.385Z,26.64
2018-09-20T11:49:13.054Z,26.64
2018-09-20T11:50:13.606Z,26.64
2018-09-20T11:51:12.872Z,26.65
2018-09-20T11:52:14.047Z,26.66
2018-09-20T11:53:14.406Z,26.67
2018-09-20T11:54:14.902Z,26.68
2018-09-20T11:55:15.098Z,26.68
2018-09-20T11:56:15.307Z,26.68
2018-09-20T11:57:15.551Z,26.69
2018-09-20T11:58:15.737Z,26.70
2018-09-20T11:59:15.941Z,26.71
2018-09-20T12:00:16.447Z,26.73
2018-09-20T12:01:16.730Z,26.75
2018-09-20T12:02:16.029Z,26.77
2018-09-20T12:03:17.391Z,26.78
2018-09-20T12:04:17.562Z,26.78
2018-09-20T12:05:17.779Z,26.76
2018-09-20T12:06:17.969Z,26.75
2018-09-20T12:07:18.185Z,26.74
2018-09-20T12:08:18.813Z,26.74
2018-09-20T12:09:18.982Z,26.74
2018-09-20T12:10:19.178Z,26.74
2018-09-20T12:11:19.396Z,26.75
2018-09-20T12:12:19.756Z,26.77
2018-09-20T12:13:20.484Z,26.78
2018-09-20T12:14:20.723Z,26.80
2018-09-20T12:15:19.826Z,26.81
2018-09-20T12:16:21.076Z,26.82
2018-09-20T12:17:21.498Z,26.83
2018-09-20T12:18:22.004Z,26.85
2018-09-20T12:19:22.424Z,26.87
2018-09-20T12:20:23.090Z,26.88
2018-09-20T12:21:23.275Z,26.89
2018-09-20T12:22:23.486Z,26.90
2018-09-20T12:23:23.686Z,26.90
2018-09-20T12:24:23.924Z,26.91
2018-09-20T12:25:24.144Z,26.92
2018-09-20T12:26:24.363Z,26.93
2018-09-20T12:27:24.705Z,26.95
2018-09-20T12:28:25.319Z,26.97
2018-09-20T12:29:24.734Z,26.98
2018-09-20T12:30:26.490Z,27.00
2018-09-20T12:31:26.986Z,27.01
2018-09-20T12:32:26.868Z,27.03
2018-09-20T12:33:28.163Z,27.05
2018-09-20T12:34:28.731Z,27.07
2018-09-20T12:34:37.072Z,27.12
2018-09-20T12:35:38.543Z,27.11
2018-09-20T12:36:37.800Z,27.12
2018-09-20T12:37:38.990Z,27.12
2018-09-20T12:38:39.556Z,27.13
2018-09-20T12:39:40.136Z,27.14
2018-09-20T12:40:40.735Z,27.16
2018-09-20T12:41:41.266Z,27.18
2018-09-20T12:42:42.143Z,27.19